sensor_id;sensor_type;location;lat;lon;timestamp;pressure;altitude;pressure_sealevel;temperature;humidity
56456;BME280;42354;53.218;6.564;2023-05-24T00:02:19;46987.28;;;-142.92;97.99
56456;BME280;42354;53.218;6.564;2023-05-24T00:04:44;46974.97;;;-142.92;98.48
56456;BME280;42354;53.218;6.564;2023-05-24T00:07:10;46979.06;;;-142.92;98.56
56456;BME280;42354;53.218;6.564;2023-05-24T00:09:35;46968.81;;;-142.92;98.69
56456;BME280;42354;53.218;6.564;2023-05-24T00:12:01;46979.06;;;-142.92;98.94
56456;BME280;42354;53.218;6.564;2023-05-24T00:14:26;46970.88;;;-142.92;98.96
56456;BME280;42354;53.218;6.564;2023-05-24T00:16:51;46977.03;;;-142.92;99.00
56456;BME280;42354;53.218;6.564;2023-05-24T00:19:17;46979.06;;;-142.92;99.03
56456;BME280;42354;53.218;6.564;2023-05-24T00:21:46;46954.44;;;-142.92;99.16
56456;BME280;42354;53.218;6.564;2023-05-24T00:24:12;46981.13;;;-142.92;99.40
56456;BME280;42354;53.218;6.564;2023-05-24T00:26:37;46960.59;;;-142.92;99.42
56456;BME280;42354;53.218;6.564;2023-05-24T00:29:03;47001.66;;;-142.92;99.38
56456;BME280;42354;53.218;6.564;2023-05-24T00:31:28;46974.97;;;-142.92;99.54
56456;BME280;42354;53.218;6.564;2023-05-24T00:33:54;46964.72;;;-142.92;99.44
56456;BME280;42354;53.218;6.564;2023-05-24T00:36:19;46981.13;;;-142.92;99.36
56456;BME280;42354;53.218;6.564;2023-05-24T00:38:45;46960.59;;;-142.92;99.41
56456;BME280;42354;53.218;6.564;2023-05-24T00:41:11;46970.88;;;-142.92;98.85
56456;BME280;42354;53.218;6.564;2023-05-24T00:43:36;46993.44;;;-142.92;98.55
56456;BME280;42354;53.218;6.564;2023-05-24T00:48:39;46979.06;;;-142.92;98.46
56456;BME280;42354;53.218;6.564;2023-05-24T00:51:04;46985.22;;;-142.92;98.38
56456;BME280;42354;53.218;6.564;2023-05-24T00:53:30;46993.44;;;-142.92;98.31
56456;BME280;42354;53.218;6.564;2023-05-24T00:55:57;46981.13;;;-142.92;97.70
56456;BME280;42354;53.218;6.564;2023-05-24T00:58:24;46974.97;;;-142.92;97.35
56456;BME280;42354;53.218;6.564;2023-05-24T01:00:57;46977.03;;;-142.92;96.68
56456;BME280;42354;53.218;6.564;2023-05-24T01:03:24;46977.03;;;-142.92;96.12
56456;BME280;42354;53.218;6.564;2023-05-24T01:05:50;46983.19;;;-142.92;95.07
56456;BME280;42354;53.218;6.564;2023-05-24T01:11:20;46972.91;;;-142.92;93.80
56456;BME280;42354;53.218;6.564;2023-05-24T01:13:57;46989.34;;;-142.92;94.17
56456;BME280;42354;53.218;6.564;2023-05-24T01:16:26;46968.81;;;-142.92;93.86
56456;BME280;42354;53.218;6.564;2023-05-24T01:18:56;46970.88;;;-142.92;93.07
56456;BME280;42354;53.218;6.564;2023-05-24T01:22:00;46970.88;;;-142.92;93.07
56456;BME280;42354;53.218;6.564;2023-05-24T01:27:18;46979.06;;;-142.92;93.20
56456;BME280;42354;53.218;6.564;2023-05-24T01:29:46;46979.06;;;-142.92;93.18
56456;BME280;42354;53.218;6.564;2023-05-24T01:32:20;46964.72;;;-142.92;92.55
56456;BME280;42354;53.218;6.564;2023-05-24T01:34:46;46989.34;;;-142.92;92.64
56456;BME280;42354;53.218;6.564;2023-05-24T01:37:11;46970.88;;;-142.92;92.63
56456;BME280;42354;53.218;6.564;2023-05-24T01:39:36;46958.56;;;-142.92;92.96
56456;BME280;42354;53.218;6.564;2023-05-24T01:42:25;46987.28;;;-142.92;92.42
56456;BME280;42354;53.218;6.564;2023-05-24T01:48:05;46981.13;;;-142.92;93.01
56456;BME280;42354;53.218;6.564;2023-05-24T01:50:44;46979.06;;;-142.92;92.98
56456;BME280;42354;53.218;6.564;2023-05-24T01:53:12;46991.38;;;-142.92;93.15
56456;BME280;42354;53.218;6.564;2023-05-24T01:55:41;46952.41;;;-142.92;92.99
56456;BME280;42354;53.218;6.564;2023-05-24T01:58:08;46987.28;;;-142.92;92.91
56456;BME280;42354;53.218;6.564;2023-05-24T02:00:34;46981.13;;;-142.92;92.80
56456;BME280;42354;53.218;6.564;2023-05-24T02:03:00;46962.66;;;-142.92;92.84
56456;BME280;42354;53.218;6.564;2023-05-24T02:05:27;46968.81;;;-142.92;92.93
56456;BME280;42354;53.218;6.564;2023-05-24T02:07:52;46954.44;;;-142.92;92.42
56456;BME280;42354;53.218;6.564;2023-05-24T02:10:17;46966.75;;;-142.92;92.32
56456;BME280;42354;53.218;6.564;2023-05-24T02:12:43;46958.56;;;-142.92;92.49
56456;BME280;42354;53.218;6.564;2023-05-24T02:15:09;46989.34;;;-142.92;92.30
56456;BME280;42354;53.218;6.564;2023-05-24T02:17:34;47001.66;;;-142.92;92.33
56456;BME280;42354;53.218;6.564;2023-05-24T02:20:00;46972.91;;;-142.92;92.22
56456;BME280;42354;53.218;6.564;2023-05-24T02:22:26;46981.13;;;-142.92;92.21
56456;BME280;42354;53.218;6.564;2023-05-24T02:24:51;46966.75;;;-142.92;92.07
56456;BME280;42354;53.218;6.564;2023-05-24T02:27:17;46962.66;;;-142.92;91.46
56456;BME280;42354;53.218;6.564;2023-05-24T02:29:43;46970.88;;;-142.92;91.33
56456;BME280;42354;53.218;6.564;2023-05-24T02:32:08;46966.75;;;-142.92;91.49
56456;BME280;42354;53.218;6.564;2023-05-24T02:34:33;46966.75;;;-142.92;91.51
56456;BME280;42354;53.218;6.564;2023-05-24T02:36:59;46974.97;;;-142.92;91.83
56456;BME280;42354;53.218;6.564;2023-05-24T02:39:26;46966.75;;;-142.92;91.87
56456;BME280;42354;53.218;6.564;2023-05-24T02:41:51;46968.81;;;-142.92;91.87
56456;BME280;42354;53.218;6.564;2023-05-24T02:44:17;46974.97;;;-142.92;91.74
56456;BME280;42354;53.218;6.564;2023-05-24T02:46:42;46983.19;;;-142.92;91.83
56456;BME280;42354;53.218;6.564;2023-05-24T02:49:07;46970.88;;;-142.92;92.20
56456;BME280;42354;53.218;6.564;2023-05-24T02:51:34;46983.19;;;-142.92;92.30
56456;BME280;42354;53.218;6.564;2023-05-24T02:54:01;46981.13;;;-142.92;92.44
56456;BME280;42354;53.218;6.564;2023-05-24T02:56:26;46974.97;;;-142.92;92.19
56456;BME280;42354;53.218;6.564;2023-05-24T02:58:53;46954.44;;;-142.92;92.44
56456;BME280;42354;53.218;6.564;2023-05-24T03:01:20;46983.19;;;-142.92;92.42
56456;BME280;42354;53.218;6.564;2023-05-24T03:03:46;46981.13;;;-142.92;92.74
56456;BME280;42354;53.218;6.564;2023-05-24T03:06:11;46999.59;;;-142.92;92.45
56456;BME280;42354;53.218;6.564;2023-05-24T03:08:38;46987.28;;;-142.92;92.65
56456;BME280;42354;53.218;6.564;2023-05-24T03:11:04;46993.44;;;-142.92;92.91
56456;BME280;42354;53.218;6.564;2023-05-24T03:13:29;46987.28;;;-142.92;92.95
56456;BME280;42354;53.218;6.564;2023-05-24T03:15:55;46983.19;;;-142.92;92.91
56456;BME280;42354;53.218;6.564;2023-05-24T03:18:20;46987.28;;;-142.92;92.86
56456;BME280;42354;53.218;6.564;2023-05-24T03:20:46;46983.19;;;-142.92;92.63
56456;BME280;42354;53.218;6.564;2023-05-24T03:23:11;46977.03;;;-142.92;92.44
56456;BME280;42354;53.218;6.564;2023-05-24T03:25:36;46985.22;;;-142.92;92.71
56456;BME280;42354;53.218;6.564;2023-05-24T03:28:02;46962.66;;;-142.92;92.30
56456;BME280;42354;53.218;6.564;2023-05-24T03:30:27;46979.06;;;-142.92;92.20
56456;BME280;42354;53.218;6.564;2023-05-24T03:32:53;46972.91;;;-142.92;92.16
56456;BME280;42354;53.218;6.564;2023-05-24T03:35:19;46989.34;;;-142.92;92.12
56456;BME280;42354;53.218;6.564;2023-05-24T03:37:44;46985.22;;;-142.92;92.03
56456;BME280;42354;53.218;6.564;2023-05-24T03:40:10;46981.13;;;-142.92;91.99
56456;BME280;42354;53.218;6.564;2023-05-24T03:42:36;46991.38;;;-142.92;91.81
56456;BME280;42354;53.218;6.564;2023-05-24T03:45:01;46989.34;;;-142.92;91.76
56456;BME280;42354;53.218;6.564;2023-05-24T03:47:26;46979.06;;;-142.92;91.94
56456;BME280;42354;53.218;6.564;2023-05-24T03:49:52;46977.03;;;-142.92;92.14
56456;BME280;42354;53.218;6.564;2023-05-24T03:52:17;46981.13;;;-142.92;91.98
56456;BME280;42354;53.218;6.564;2023-05-24T03:54:43;46987.28;;;-142.92;91.96
56456;BME280;42354;53.218;6.564;2023-05-24T03:57:09;46977.03;;;-142.92;92.12
56456;BME280;42354;53.218;6.564;2023-05-24T03:59:35;46979.06;;;-142.92;92.01
56456;BME280;42354;53.218;6.564;2023-05-24T04:02:00;46979.06;;;-142.92;92.17
56456;BME280;42354;53.218;6.564;2023-05-24T04:04:25;46979.06;;;-142.92;92.35
56456;BME280;42354;53.218;6.564;2023-05-24T04:06:51;46968.81;;;-142.92;92.48
56456;BME280;42354;53.218;6.564;2023-05-24T04:09:20;46999.59;;;-142.92;92.19
56456;BME280;42354;53.218;6.564;2023-05-24T04:11:45;46993.44;;;-142.92;91.87
56456;BME280;42354;53.218;6.564;2023-05-24T04:14:11;46987.28;;;-142.92;91.70
56456;BME280;42354;53.218;6.564;2023-05-24T04:16:36;46991.38;;;-142.92;91.67
56456;BME280;42354;53.218;6.564;2023-05-24T04:19:03;46991.38;;;-142.92;91.45
56456;BME280;42354;53.218;6.564;2023-05-24T04:21:29;46985.22;;;-142.92;91.11
56456;BME280;42354;53.218;6.564;2023-05-24T04:23:56;46985.22;;;-142.92;91.02
56456;BME280;42354;53.218;6.564;2023-05-24T04:26:23;46983.19;;;-142.92;90.74
56456;BME280;42354;53.218;6.564;2023-05-24T04:28:48;46974.97;;;-142.92;90.22
56456;BME280;42354;53.218;6.564;2023-05-24T04:31:13;46979.06;;;-142.92;89.79
56456;BME280;42354;53.218;6.564;2023-05-24T04:33:40;46981.13;;;-142.92;89.90
56456;BME280;42354;53.218;6.564;2023-05-24T04:36:06;46993.44;;;-142.92;89.86
56456;BME280;42354;53.218;6.564;2023-05-24T04:38:32;46987.28;;;-142.92;90.02
56456;BME280;42354;53.218;6.564;2023-05-24T04:40:58;46970.88;;;-142.92;89.47
56456;BME280;42354;53.218;6.564;2023-05-24T04:43:24;46985.22;;;-142.92;89.82
56456;BME280;42354;53.218;6.564;2023-05-24T04:45:51;46979.06;;;-142.92;89.73
56456;BME280;42354;53.218;6.564;2023-05-24T04:48:18;46995.50;;;-142.92;89.67
56456;BME280;42354;53.218;6.564;2023-05-24T04:50:45;46981.13;;;-142.92;89.69
56456;BME280;42354;53.218;6.564;2023-05-24T04:53:10;46987.28;;;-142.92;89.22
56456;BME280;42354;53.218;6.564;2023-05-24T04:55:36;46979.06;;;-142.92;89.42
56456;BME280;42354;53.218;6.564;2023-05-24T04:58:01;46974.97;;;-142.92;89.14
56456;BME280;42354;53.218;6.564;2023-05-24T05:00:26;47001.66;;;-142.92;89.30
56456;BME280;42354;53.218;6.564;2023-05-24T05:02:52;46974.97;;;-142.92;89.11
56456;BME280;42354;53.218;6.564;2023-05-24T05:05:17;46991.38;;;-142.92;88.46
56456;BME280;42354;53.218;6.564;2023-05-24T05:07:43;46968.81;;;-142.92;88.68
56456;BME280;42354;53.218;6.564;2023-05-24T05:10:08;46989.34;;;-142.92;87.72
56456;BME280;42354;53.218;6.564;2023-05-24T05:12:33;46983.19;;;-142.92;87.95
56456;BME280;42354;53.218;6.564;2023-05-24T05:14:59;46985.22;;;-142.92;87.63
56456;BME280;42354;53.218;6.564;2023-05-24T05:17:24;46985.22;;;-142.92;87.78
56456;BME280;42354;53.218;6.564;2023-05-24T05:19:49;46974.97;;;-142.92;87.46
56456;BME280;42354;53.218;6.564;2023-05-24T05:22:15;46972.91;;;-142.92;86.85
56456;BME280;42354;53.218;6.564;2023-05-24T05:24:40;46985.22;;;-142.92;86.88
56456;BME280;42354;53.218;6.564;2023-05-24T05:27:06;46981.13;;;-142.92;86.52
56456;BME280;42354;53.218;6.564;2023-05-24T05:29:31;46983.19;;;-142.92;85.60
56456;BME280;42354;53.218;6.564;2023-05-24T05:31:56;46987.28;;;-142.92;85.37
56456;BME280;42354;53.218;6.564;2023-05-24T05:34:22;46979.06;;;-142.92;85.37
56456;BME280;42354;53.218;6.564;2023-05-24T05:36:47;46999.59;;;-142.92;85.28
56456;BME280;42354;53.218;6.564;2023-05-24T05:39:12;46972.91;;;-142.92;85.33
56456;BME280;42354;53.218;6.564;2023-05-24T05:41:39;46995.50;;;-142.92;85.31
56456;BME280;42354;53.218;6.564;2023-05-24T05:44:06;46991.38;;;-142.92;86.15
56456;BME280;42354;53.218;6.564;2023-05-24T05:46:31;46981.13;;;-142.92;86.23
56456;BME280;42354;53.218;6.564;2023-05-24T05:48:57;46995.50;;;-142.92;86.42
56456;BME280;42354;53.218;6.564;2023-05-24T05:51:22;46989.34;;;-142.92;86.63
56456;BME280;42354;53.218;6.564;2023-05-24T05:53:47;46979.06;;;-142.92;86.92
56456;BME280;42354;53.218;6.564;2023-05-24T05:56:13;46974.97;;;-142.92;86.87
56456;BME280;42354;53.218;6.564;2023-05-24T05:58:38;46999.59;;;-142.92;86.81
56456;BME280;42354;53.218;6.564;2023-05-24T06:01:04;46991.38;;;-142.92;86.46
56456;BME280;42354;53.218;6.564;2023-05-24T06:03:29;46987.28;;;-142.92;85.75
56456;BME280;42354;53.218;6.564;2023-05-24T06:05:54;46991.38;;;-142.92;84.18
56456;BME280;42354;53.218;6.564;2023-05-24T06:08:20;46987.28;;;-142.92;82.92
56456;BME280;42354;53.218;6.564;2023-05-24T06:10:45;46993.44;;;-142.92;82.75
56456;BME280;42354;53.218;6.564;2023-05-24T06:13:13;46991.38;;;-142.92;82.08
56456;BME280;42354;53.218;6.564;2023-05-24T06:15:38;46995.50;;;-142.92;81.08
56456;BME280;42354;53.218;6.564;2023-05-24T06:18:04;46974.97;;;-142.92;80.32
56456;BME280;42354;53.218;6.564;2023-05-24T06:20:29;46995.50;;;-142.92;79.14
56456;BME280;42354;53.218;6.564;2023-05-24T06:22:55;46968.81;;;-142.92;75.50
56456;BME280;42354;53.218;6.564;2023-05-24T06:25:21;46979.06;;;-142.92;75.52
56456;BME280;42354;53.218;6.564;2023-05-24T06:27:49;46987.28;;;-142.92;74.24
56456;BME280;42354;53.218;6.564;2023-05-24T06:30:15;46962.66;;;-142.92;73.18
56456;BME280;42354;53.218;6.564;2023-05-24T06:32:40;46966.75;;;-142.92;73.00
56456;BME280;42354;53.218;6.564;2023-05-24T06:35:06;46987.28;;;-142.92;72.87
56456;BME280;42354;53.218;6.564;2023-05-24T06:37:32;46995.50;;;-142.92;72.92
56456;BME280;42354;53.218;6.564;2023-05-24T06:39:57;46991.38;;;-142.92;70.93
56456;BME280;42354;53.218;6.564;2023-05-24T06:42:23;46983.19;;;-142.92;70.37
56456;BME280;42354;53.218;6.564;2023-05-24T06:44:48;46987.28;;;-142.92;70.05
56456;BME280;42354;53.218;6.564;2023-05-24T06:47:13;46987.28;;;-142.92;69.78
56456;BME280;42354;53.218;6.564;2023-05-24T06:49:39;46968.81;;;-142.92;70.75
56456;BME280;42354;53.218;6.564;2023-05-24T06:52:04;46977.03;;;-142.92;71.65
56456;BME280;42354;53.218;6.564;2023-05-24T06:54:33;46979.06;;;-142.92;72.51
56456;BME280;42354;53.218;6.564;2023-05-24T06:56:58;46983.19;;;-142.92;72.94
56456;BME280;42354;53.218;6.564;2023-05-24T06:59:24;46979.06;;;-142.92;73.39
56456;BME280;42354;53.218;6.564;2023-05-24T07:01:50;46954.44;;;-142.92;73.42
56456;BME280;42354;53.218;6.564;2023-05-24T07:04:21;47007.81;;;-142.92;74.36
56456;BME280;42354;53.218;6.564;2023-05-24T07:06:47;46983.19;;;-142.92;75.25
56456;BME280;42354;53.218;6.564;2023-05-24T07:09:12;46991.38;;;-142.92;75.21
56456;BME280;42354;53.218;6.564;2023-05-24T07:11:39;46985.22;;;-142.92;75.65
56456;BME280;42354;53.218;6.564;2023-05-24T07:14:05;46989.34;;;-142.92;76.47
56456;BME280;42354;53.218;6.564;2023-05-24T07:16:30;46979.06;;;-142.92;76.35
56456;BME280;42354;53.218;6.564;2023-05-24T07:18:56;46974.97;;;-142.92;75.83
56456;BME280;42354;53.218;6.564;2023-05-24T07:21:22;46960.59;;;-142.92;75.35
56456;BME280;42354;53.218;6.564;2023-05-24T07:23:52;46997.53;;;-142.92;74.42
56456;BME280;42354;53.218;6.564;2023-05-24T07:26:17;46972.91;;;-142.92;73.74
56456;BME280;42354;53.218;6.564;2023-05-24T07:28:43;46970.88;;;-142.92;73.72
56456;BME280;42354;53.218;6.564;2023-05-24T07:31:08;46983.19;;;-142.92;73.42
56456;BME280;42354;53.218;6.564;2023-05-24T07:33:37;46993.44;;;-142.92;73.63
56456;BME280;42354;53.218;6.564;2023-05-24T07:36:06;46987.28;;;-142.92;73.28
56456;BME280;42354;53.218;6.564;2023-05-24T07:38:33;46964.72;;;-142.92;73.59
56456;BME280;42354;53.218;6.564;2023-05-24T07:41:00;46985.22;;;-142.92;73.37
56456;BME280;42354;53.218;6.564;2023-05-24T07:43:26;46999.59;;;-142.92;73.12
56456;BME280;42354;53.218;6.564;2023-05-24T07:45:52;46972.91;;;-142.92;72.67
56456;BME280;42354;53.218;6.564;2023-05-24T07:48:18;46987.28;;;-142.92;71.43
56456;BME280;42354;53.218;6.564;2023-05-24T07:50:44;46972.91;;;-142.92;69.71
56456;BME280;42354;53.218;6.564;2023-05-24T07:53:13;46974.97;;;-142.92;67.85
56456;BME280;42354;53.218;6.564;2023-05-24T07:55:39;46972.91;;;-142.92;67.82
56456;BME280;42354;53.218;6.564;2023-05-24T07:58:05;46995.50;;;-142.92;68.13
56456;BME280;42354;53.218;6.564;2023-05-24T08:00:30;46997.53;;;-142.92;67.68
56456;BME280;42354;53.218;6.564;2023-05-24T08:02:57;46991.38;;;-142.92;67.13
56456;BME280;42354;53.218;6.564;2023-05-24T08:05:23;46985.22;;;-142.92;65.87
56456;BME280;42354;53.218;6.564;2023-05-24T08:07:49;46981.13;;;-142.92;62.80
56456;BME280;42354;53.218;6.564;2023-05-24T08:10:14;46977.03;;;-142.92;61.80
56456;BME280;42354;53.218;6.564;2023-05-24T08:12:40;46987.28;;;-142.92;60.88
56456;BME280;42354;53.218;6.564;2023-05-24T08:15:06;46983.19;;;-142.92;59.70
56456;BME280;42354;53.218;6.564;2023-05-24T08:17:32;46995.50;;;-142.92;59.46
56456;BME280;42354;53.218;6.564;2023-05-24T08:19:57;46987.28;;;-142.92;59.42
56456;BME280;42354;53.218;6.564;2023-05-24T08:22:22;46979.06;;;-142.92;59.20
56456;BME280;42354;53.218;6.564;2023-05-24T08:24:48;46979.06;;;-142.92;59.19
56456;BME280;42354;53.218;6.564;2023-05-24T08:27:13;46987.28;;;-142.92;57.13
56456;BME280;42354;53.218;6.564;2023-05-24T08:29:39;46987.28;;;-142.92;56.51
56456;BME280;42354;53.218;6.564;2023-05-24T08:32:05;46991.38;;;-142.92;57.31
56456;BME280;42354;53.218;6.564;2023-05-24T08:34:37;46981.13;;;-142.92;57.73
56456;BME280;42354;53.218;6.564;2023-05-24T08:37:05;47001.66;;;-142.92;57.66
56456;BME280;42354;53.218;6.564;2023-05-24T08:39:31;46981.13;;;-142.92;57.66
56456;BME280;42354;53.218;6.564;2023-05-24T08:41:57;46995.50;;;-142.92;58.23
56456;BME280;42354;53.218;6.564;2023-05-24T08:44:24;46974.97;;;-142.92;57.12
56456;BME280;42354;53.218;6.564;2023-05-24T08:46:52;46983.19;;;-142.92;56.67
56456;BME280;42354;53.218;6.564;2023-05-24T08:49:18;46962.66;;;-142.92;56.63
56456;BME280;42354;53.218;6.564;2023-05-24T08:51:43;46979.06;;;-142.92;58.46
56456;BME280;42354;53.218;6.564;2023-05-24T08:54:10;46977.03;;;-142.92;58.73
56456;BME280;42354;53.218;6.564;2023-05-24T08:56:39;46989.34;;;-142.92;58.46
56456;BME280;42354;53.218;6.564;2023-05-24T08:59:07;46970.88;;;-142.92;60.56
56456;BME280;42354;53.218;6.564;2023-05-24T09:01:36;46997.53;;;-142.92;61.63
56456;BME280;42354;53.218;6.564;2023-05-24T09:04:05;46979.06;;;-142.92;61.12
56456;BME280;42354;53.218;6.564;2023-05-24T09:06:30;46991.38;;;-142.92;61.23
56456;BME280;42354;53.218;6.564;2023-05-24T09:08:58;46977.03;;;-142.92;61.40
56456;BME280;42354;53.218;6.564;2023-05-24T09:11:25;46999.59;;;-142.92;61.27
56456;BME280;42354;53.218;6.564;2023-05-24T09:13:51;46987.28;;;-142.92;61.58
56456;BME280;42354;53.218;6.564;2023-05-24T09:16:19;46991.38;;;-142.92;62.12
56456;BME280;42354;53.218;6.564;2023-05-24T09:18:45;46979.06;;;-142.92;62.38
56456;BME280;42354;53.218;6.564;2023-05-24T09:21:10;46977.03;;;-142.92;62.32
56456;BME280;42354;53.218;6.564;2023-05-24T09:23:36;46997.53;;;-142.92;62.74
56456;BME280;42354;53.218;6.564;2023-05-24T09:26:09;46979.06;;;-142.92;63.06
56456;BME280;42354;53.218;6.564;2023-05-24T09:28:36;46977.03;;;-142.92;63.81
56456;BME280;42354;53.218;6.564;2023-05-24T09:31:02;46991.38;;;-142.92;63.96
56456;BME280;42354;53.218;6.564;2023-05-24T09:33:32;46999.59;;;-142.92;63.72
56456;BME280;42354;53.218;6.564;2023-05-24T09:36:00;46974.97;;;-142.92;64.30
56456;BME280;42354;53.218;6.564;2023-05-24T09:38:26;46974.97;;;-142.92;63.17
56456;BME280;42354;53.218;6.564;2023-05-24T09:41:05;46981.13;;;-142.92;62.81
56456;BME280;42354;53.218;6.564;2023-05-24T09:43:32;46995.50;;;-142.92;63.56
56456;BME280;42354;53.218;6.564;2023-05-24T09:46:01;46974.97;;;-142.92;64.84
56456;BME280;42354;53.218;6.564;2023-05-24T09:48:27;46993.44;;;-142.92;65.13
56456;BME280;42354;53.218;6.564;2023-05-24T09:51:06;46968.81;;;-142.92;65.29
56456;BME280;42354;53.218;6.564;2023-05-24T09:53:35;46987.28;;;-142.92;66.10
56456;BME280;42354;53.218;6.564;2023-05-24T09:56:08;46972.91;;;-142.92;66.25
56456;BME280;42354;53.218;6.564;2023-05-24T09:58:34;46989.34;;;-142.92;64.98
56456;BME280;42354;53.218;6.564;2023-05-24T10:01:07;46985.22;;;-142.92;64.35
56456;BME280;42354;53.218;6.564;2023-05-24T10:03:35;46970.88;;;-142.92;63.15
56456;BME280;42354;53.218;6.564;2023-05-24T10:06:02;46981.13;;;-142.92;61.19
56456;BME280;42354;53.218;6.564;2023-05-24T10:08:32;46991.38;;;-142.92;58.55
56456;BME280;42354;53.218;6.564;2023-05-24T10:11:01;46987.28;;;-142.92;57.58
56456;BME280;42354;53.218;6.564;2023-05-24T10:13:28;46979.06;;;-142.92;56.62
56456;BME280;42354;53.218;6.564;2023-05-24T10:15:53;46989.34;;;-142.92;57.10
56456;BME280;42354;53.218;6.564;2023-05-24T10:18:19;46993.44;;;-142.92;56.43
56456;BME280;42354;53.218;6.564;2023-05-24T10:20:44;46983.19;;;-142.92;55.95
56456;BME280;42354;53.218;6.564;2023-05-24T10:23:14;46991.38;;;-142.92;55.03
56456;BME280;42354;53.218;6.564;2023-05-24T10:25:49;46993.44;;;-142.92;55.69
56456;BME280;42354;53.218;6.564;2023-05-24T10:28:17;46983.19;;;-142.92;60.38
56456;BME280;42354;53.218;6.564;2023-05-24T10:31:04;46962.66;;;-142.92;63.13
56456;BME280;42354;53.218;6.564;2023-05-24T10:33:35;46964.72;;;-142.92;63.27
56456;BME280;42354;53.218;6.564;2023-05-24T10:36:03;46993.44;;;-142.92;65.48
56456;BME280;42354;53.218;6.564;2023-05-24T10:38:29;46979.06;;;-142.92;66.21
56456;BME280;42354;53.218;6.564;2023-05-24T10:40:55;46995.50;;;-142.92;66.40
56456;BME280;42354;53.218;6.564;2023-05-24T10:43:20;46977.03;;;-142.92;66.83
56456;BME280;42354;53.218;6.564;2023-05-24T10:45:49;46983.19;;;-142.92;66.40
56456;BME280;42354;53.218;6.564;2023-05-24T10:50:41;46987.28;;;-142.92;68.03
56456;BME280;42354;53.218;6.564;2023-05-24T10:53:17;46958.56;;;-142.92;65.94
56456;BME280;42354;53.218;6.564;2023-05-24T10:55:56;46977.03;;;-142.92;65.03
56456;BME280;42354;53.218;6.564;2023-05-24T10:58:27;46983.19;;;-142.92;61.99
56456;BME280;42354;53.218;6.564;2023-05-24T11:00:54;46987.28;;;-142.92;60.34
56456;BME280;42354;53.218;6.564;2023-05-24T11:03:22;46983.19;;;-142.92;58.61
56456;BME280;42354;53.218;6.564;2023-05-24T11:05:52;46979.06;;;-142.92;57.83
56456;BME280;42354;53.218;6.564;2023-05-24T11:08:25;46983.19;;;-142.92;55.97
56456;BME280;42354;53.218;6.564;2023-05-24T11:11:07;46981.13;;;-142.92;59.27
56456;BME280;42354;53.218;6.564;2023-05-24T11:13:35;46995.50;;;-142.92;61.45
56456;BME280;42354;53.218;6.564;2023-05-24T11:16:01;46987.28;;;-142.92;61.67
56456;BME280;42354;53.218;6.564;2023-05-24T11:18:26;46983.19;;;-142.92;62.43
56456;BME280;42354;53.218;6.564;2023-05-24T11:20:52;46997.53;;;-142.92;63.02
56456;BME280;42354;53.218;6.564;2023-05-24T11:23:18;46974.97;;;-142.92;61.95
56456;BME280;42354;53.218;6.564;2023-05-24T11:25:46;46974.97;;;-142.92;59.92
56456;BME280;42354;53.218;6.564;2023-05-24T11:28:12;46983.19;;;-142.92;56.36
56456;BME280;42354;53.218;6.564;2023-05-24T11:30:45;46987.28;;;-142.92;52.33
56456;BME280;42354;53.218;6.564;2023-05-24T11:33:21;46997.53;;;-142.92;50.85
56456;BME280;42354;53.218;6.564;2023-05-24T11:35:49;46995.50;;;-142.92;51.51
56456;BME280;42354;53.218;6.564;2023-05-24T11:38:15;46974.97;;;-142.92;52.95
56456;BME280;42354;53.218;6.564;2023-05-24T11:40:42;46977.03;;;-142.92;53.77
56456;BME280;42354;53.218;6.564;2023-05-24T11:43:18;46974.97;;;-142.92;53.87
56456;BME280;42354;53.218;6.564;2023-05-24T11:45:46;46972.91;;;-142.92;54.83
56456;BME280;42354;53.218;6.564;2023-05-24T11:48:17;46970.88;;;-142.92;54.32
56456;BME280;42354;53.218;6.564;2023-05-24T11:50:46;46983.19;;;-142.92;53.78
56456;BME280;42354;53.218;6.564;2023-05-24T11:53:14;46977.03;;;-142.92;53.65
56456;BME280;42354;53.218;6.564;2023-05-24T11:55:41;46985.22;;;-142.92;53.58
56456;BME280;42354;53.218;6.564;2023-05-24T11:58:19;46979.06;;;-142.92;55.93
56456;BME280;42354;53.218;6.564;2023-05-24T12:00:47;46974.97;;;-142.92;56.16
56456;BME280;42354;53.218;6.564;2023-05-24T12:03:14;46972.91;;;-142.92;56.22
56456;BME280;42354;53.218;6.564;2023-05-24T12:05:41;46962.66;;;-142.92;56.11
56456;BME280;42354;53.218;6.564;2023-05-24T12:08:08;46979.06;;;-142.92;57.18
56456;BME280;42354;53.218;6.564;2023-05-24T12:10:35;46979.06;;;-142.92;57.29
56456;BME280;42354;53.218;6.564;2023-05-24T12:13:05;46974.97;;;-142.92;57.39
56456;BME280;42354;53.218;6.564;2023-05-24T12:15:31;46974.97;;;-142.92;56.40
56456;BME280;42354;53.218;6.564;2023-05-24T12:17:58;46989.34;;;-142.92;55.16
56456;BME280;42354;53.218;6.564;2023-05-24T12:20:25;46979.06;;;-142.92;54.89
56456;BME280;42354;53.218;6.564;2023-05-24T12:22:52;46993.44;;;-142.92;55.24
56456;BME280;42354;53.218;6.564;2023-05-24T12:25:18;46985.22;;;-142.92;54.63
56456;BME280;42354;53.218;6.564;2023-05-24T12:27:52;46974.97;;;-142.92;54.99
56456;BME280;42354;53.218;6.564;2023-05-24T12:30:21;46970.88;;;-142.92;56.04
56456;BME280;42354;53.218;6.564;2023-05-24T12:32:48;46995.50;;;-142.92;57.22
56456;BME280;42354;53.218;6.564;2023-05-24T12:35:16;46964.72;;;-142.92;57.10
56456;BME280;42354;53.218;6.564;2023-05-24T12:37:42;46987.28;;;-142.92;57.13
56456;BME280;42354;53.218;6.564;2023-05-24T12:40:18;46983.19;;;-142.92;58.01
56456;BME280;42354;53.218;6.564;2023-05-24T12:42:55;46970.88;;;-142.92;58.71
56456;BME280;42354;53.218;6.564;2023-05-24T12:45:26;46964.72;;;-142.92;58.94
56456;BME280;42354;53.218;6.564;2023-05-24T12:47:53;46991.38;;;-142.92;58.27
56456;BME280;42354;53.218;6.564;2023-05-24T12:50:19;46981.13;;;-142.92;58.03
56456;BME280;42354;53.218;6.564;2023-05-24T12:52:45;46985.22;;;-142.92;57.72
56456;BME280;42354;53.218;6.564;2023-05-24T12:55:16;46966.75;;;-142.92;56.37